sensor_id;sensor_type;location;lat;lon;timestamp;pressure;altitude;pressure_sealevel;temperature
80422;BMP280;69763;50.182;9.144;2023-07-29T00:00:47;99458.22;;;15.74
80422;BMP280;69763;50.182;9.144;2023-07-29T00:03:13;99459.44;;;15.63
80422;BMP280;69763;50.182;9.144;2023-07-29T00:05:39;99465.00;;;15.56
80422;BMP280;69763;50.182;9.144;2023-07-29T00:08:05;99469.56;;;15.53
80422;BMP280;69763;50.182;9.144;2023-07-29T00:10:34;99459.69;;;15.58
80422;BMP280;69763;50.182;9.144;2023-07-29T00:13:00;99454.13;;;15.66
80422;BMP280;69763;50.182;9.144;2023-07-29T00:15:26;99464.22;;;15.73
80422;BMP280;69763;50.182;9.144;2023-07-29T00:17:51;99470.50;;;15.83
80422;BMP280;69763;50.182;9.144;2023-07-29T00:20:17;99465.09;;;15.92
80422;BMP280;69763;50.182;9.144;2023-07-29T00:22:42;99464.91;;;16.07
80422;BMP280;69763;50.182;9.144;2023-07-29T00:25:08;99468.41;;;16.18
80422;BMP280;69763;50.182;9.144;2023-07-29T00:27:34;99474.31;;;16.24
80422;BMP280;69763;50.182;9.144;2023-07-29T00:30:00;99466.03;;;16.31
80422;BMP280;69763;50.182;9.144;2023-07-29T00:32:27;99464.16;;;16.34
80422;BMP280;69763;50.182;9.144;2023-07-29T00:34:52;99459.16;;;16.40
80422;BMP280;69763;50.182;9.144;2023-07-29T00:37:18;99463.78;;;16.47
80422;BMP280;69763;50.182;9.144;2023-07-29T00:39:43;99458.78;;;16.53
80422;BMP280;69763;50.182;9.144;2023-07-29T00:42:09;99459.97;;;16.60
80422;BMP280;69763;50.182;9.144;2023-07-29T00:44:35;99454.78;;;16.64
80422;BMP280;69763;50.182;9.144;2023-07-29T00:47:02;99454.22;;;16.65
80422;BMP280;69763;50.182;9.144;2023-07-29T00:49:29;99455.53;;;16.64
80422;BMP280;69763;50.182;9.144;2023-07-29T00:51:54;99452.19;;;16.66
80422;BMP280;69763;50.182;9.144;2023-07-29T00:54:20;99454.22;;;16.65
80422;BMP280;69763;50.182;9.144;2023-07-29T00:56:45;99448.31;;;16.69
80422;BMP280;69763;50.182;9.144;2023-07-29T00:59:11;99440.09;;;16.69
80422;BMP280;69763;50.182;9.144;2023-07-29T01:01:38;99440.22;;;16.71
80422;BMP280;69763;50.182;9.144;2023-07-29T01:04:04;99439.50;;;16.70
80422;BMP280;69763;50.182;9.144;2023-07-29T01:06:34;99442.25;;;16.70
80422;BMP280;69763;50.182;9.144;2023-07-29T01:09:05;99434.50;;;16.67
80422;BMP280;69763;50.182;9.144;2023-07-29T01:11:51;99423.53;;;16.67
80422;BMP280;69763;50.182;9.144;2023-07-29T01:14:26;99425.25;;;16.62
80422;BMP280;69763;50.182;9.144;2023-07-29T01:17:00;99411.84;;;16.57
80422;BMP280;69763;50.182;9.144;2023-07-29T01:19:42;99413.00;;;16.53
80422;BMP280;69763;50.182;9.144;2023-07-29T01:22:08;99413.44;;;16.50
80422;BMP280;69763;50.182;9.144;2023-07-29T01:24:36;99415.69;;;16.44
80422;BMP280;69763;50.182;9.144;2023-07-29T01:27:02;99415.22;;;16.38
80422;BMP280;69763;50.182;9.144;2023-07-29T01:29:28;99412.34;;;16.36
80422;BMP280;69763;50.182;9.144;2023-07-29T01:31:56;99416.94;;;16.33
80422;BMP280;69763;50.182;9.144;2023-07-29T01:34:28;99409.31;;;16.32
80422;BMP280;69763;50.182;9.144;2023-07-29T01:36:57;99405.44;;;16.35
80422;BMP280;69763;50.182;9.144;2023-07-29T01:39:24;99415.81;;;16.36
80422;BMP280;69763;50.182;9.144;2023-07-29T01:41:52;99403.72;;;16.39
80422;BMP280;69763;50.182;9.144;2023-07-29T01:44:18;99404.00;;;16.34
80422;BMP280;69763;50.182;9.144;2023-07-29T01:46:44;99416.19;;;16.23
80422;BMP280;69763;50.182;9.144;2023-07-29T01:49:09;99395.72;;;16.15
80422;BMP280;69763;50.182;9.144;2023-07-29T01:51:35;99401.88;;;16.05
80422;BMP280;69763;50.182;9.144;2023-07-29T01:54:00;99395.22;;;15.99
80422;BMP280;69763;50.182;9.144;2023-07-29T01:56:25;99396.03;;;15.92
80422;BMP280;69763;50.182;9.144;2023-07-29T01:58:52;99390.53;;;15.82
80422;BMP280;69763;50.182;9.144;2023-07-29T02:01:17;99390.94;;;15.79
80422;BMP280;69763;50.182;9.144;2023-07-29T02:03:43;99390.84;;;15.86
80422;BMP280;69763;50.182;9.144;2023-07-29T02:06:08;99388.88;;;15.96
80422;BMP280;69763;50.182;9.144;2023-07-29T02:08:34;99395.84;;;16.07
80422;BMP280;69763;50.182;9.144;2023-07-29T02:10:59;99385.53;;;16.15
80422;BMP280;69763;50.182;9.144;2023-07-29T02:13:24;99383.38;;;16.23
80422;BMP280;69763;50.182;9.144;2023-07-29T02:15:51;99384.53;;;16.30
80422;BMP280;69763;50.182;9.144;2023-07-29T02:18:16;99381.56;;;16.35
80422;BMP280;69763;50.182;9.144;2023-07-29T02:20:42;99377.84;;;16.40
80422;BMP280;69763;50.182;9.144;2023-07-29T02:23:07;99364.88;;;16.41
80422;BMP280;69763;50.182;9.144;2023-07-29T02:25:35;99361.69;;;16.35
80422;BMP280;69763;50.182;9.144;2023-07-29T02:28:00;99362.53;;;16.28
80422;BMP280;69763;50.182;9.144;2023-07-29T02:30:26;99353.59;;;16.27
80422;BMP280;69763;50.182;9.144;2023-07-29T02:32:52;99360.19;;;16.24
80422;BMP280;69763;50.182;9.144;2023-07-29T02:35:18;99363.66;;;16.15
80422;BMP280;69763;50.182;9.144;2023-07-29T02:37:43;99364.50;;;16.08
80422;BMP280;69763;50.182;9.144;2023-07-29T02:40:10;99363.19;;;16.09
80422;BMP280;69763;50.182;9.144;2023-07-29T02:42:35;99359.47;;;16.14
80422;BMP280;69763;50.182;9.144;2023-07-29T02:45:00;99351.28;;;16.24
80422;BMP280;69763;50.182;9.144;2023-07-29T02:47:26;99354.19;;;16.35
80422;BMP280;69763;50.182;9.144;2023-07-29T02:49:52;99353.81;;;16.48
80422;BMP280;69763;50.182;9.144;2023-07-29T02:52:18;99353.09;;;16.58
80422;BMP280;69763;50.182;9.144;2023-07-29T02:54:43;99361.03;;;16.63
80422;BMP280;69763;50.182;9.144;2023-07-29T02:57:09;99347.78;;;16.69
80422;BMP280;69763;50.182;9.144;2023-07-29T02:59:34;99344.06;;;16.74
80422;BMP280;69763;50.182;9.144;2023-07-29T03:01:59;99345.47;;;16.75
80422;BMP280;69763;50.182;9.144;2023-07-29T03:04:25;99338.59;;;16.74
80422;BMP280;69763;50.182;9.144;2023-07-29T03:06:51;99339.44;;;16.77
80422;BMP280;69763;50.182;9.144;2023-07-29T03:09:17;99342.91;;;16.77
80422;BMP280;69763;50.182;9.144;2023-07-29T03:11:42;99334.69;;;16.77
80422;BMP280;69763;50.182;9.144;2023-07-29T03:14:08;99333.09;;;16.74
80422;BMP280;69763;50.182;9.144;2023-07-29T03:16:33;99338.97;;;16.71
80422;BMP280;69763;50.182;9.144;2023-07-29T03:18:59;99340.88;;;16.68
80422;BMP280;69763;50.182;9.144;2023-07-29T03:21:24;99344.63;;;16.63
80422;BMP280;69763;50.182;9.144;2023-07-29T03:23:51;99343.91;;;16.63
80422;BMP280;69763;50.182;9.144;2023-07-29T03:26:16;99342.31;;;16.60
80422;BMP280;69763;50.182;9.144;2023-07-29T03:28:43;99338.31;;;16.61
80422;BMP280;69763;50.182;9.144;2023-07-29T03:31:08;99348.09;;;16.64
80422;BMP280;69763;50.182;9.144;2023-07-29T03:33:33;99359.31;;;16.68
80422;BMP280;69763;50.182;9.144;2023-07-29T03:35:59;99347.34;;;16.73
80422;BMP280;69763;50.182;9.144;2023-07-29T03:38:24;99330.06;;;16.70
80422;BMP280;69763;50.182;9.144;2023-07-29T03:40:51;99324.75;;;16.63
80422;BMP280;69763;50.182;9.144;2023-07-29T03:43:17;99320.56;;;16.52
80422;BMP280;69763;50.182;9.144;2023-07-29T03:45:42;99321.41;;;16.45
80422;BMP280;69763;50.182;9.144;2023-07-29T03:48:08;99320.09;;;16.36
80422;BMP280;69763;50.182;9.144;2023-07-29T03:50:34;99319.66;;;16.30
80422;BMP280;69763;50.182;9.144;2023-07-29T03:53:00;99311.56;;;16.23
80422;BMP280;69763;50.182;9.144;2023-07-29T03:55:25;99303.03;;;16.19
80422;BMP280;69763;50.182;9.144;2023-07-29T03:57:52;99291.25;;;16.16
80422;BMP280;69763;50.182;9.144;2023-07-29T04:00:17;99289.69;;;16.13
80422;BMP280;69763;50.182;9.144;2023-07-29T04:02:42;99289.97;;;16.07
80422;BMP280;69763;50.182;9.144;2023-07-29T04:05:08;99299.88;;;16.03
80422;BMP280;69763;50.182;9.144;2023-07-29T04:07:34;99302.44;;;16.01
80422;BMP280;69763;50.182;9.144;2023-07-29T04:09:59;99301.00;;;16.00
80422;BMP280;69763;50.182;9.144;2023-07-29T04:12:25;99316.69;;;15.99
80422;BMP280;69763;50.182;9.144;2023-07-29T04:14:52;99318.13;;;16.00
80422;BMP280;69763;50.182;9.144;2023-07-29T04:17:17;99323.03;;;16.02
80422;BMP280;69763;50.182;9.144;2023-07-29T04:19:42;99307.94;;;16.11
80422;BMP280;69763;50.182;9.144;2023-07-29T04:22:08;99300.91;;;16.17
80422;BMP280;69763;50.182;9.144;2023-07-29T04:24:33;99300.31;;;16.19
80422;BMP280;69763;50.182;9.144;2023-07-29T04:26:58;99303.22;;;16.21
80422;BMP280;69763;50.182;9.144;2023-07-29T04:29:24;99302.78;;;16.24
80422;BMP280;69763;50.182;9.144;2023-07-29T04:31:51;99297.03;;;16.30
80422;BMP280;69763;50.182;9.144;2023-07-29T04:34:16;99307.88;;;16.37
80422;BMP280;69763;50.182;9.144;2023-07-29T04:36:42;99302.56;;;16.49
80422;BMP280;69763;50.182;9.144;2023-07-29T04:39:07;99305.47;;;16.61
80422;BMP280;69763;50.182;9.144;2023-07-29T04:41:33;99304.00;;;16.69
80422;BMP280;69763;50.182;9.144;2023-07-29T04:43:58;99306.16;;;16.80
80422;BMP280;69763;50.182;9.144;2023-07-29T04:46:23;99306.88;;;16.90
80422;BMP280;69763;50.182;9.144;2023-07-29T04:48:50;99293.22;;;17.00
80422;BMP280;69763;50.182;9.144;2023-07-29T04:51:15;99282.25;;;17.10
80422;BMP280;69763;50.182;9.144;2023-07-29T04:53:41;99294.19;;;17.14
80422;BMP280;69763;50.182;9.144;2023-07-29T04:56:06;99298.66;;;17.19
80422;BMP280;69763;50.182;9.144;2023-07-29T04:58:31;99300.22;;;17.22
80422;BMP280;69763;50.182;9.144;2023-07-29T05:00:57;99292.13;;;17.24
80422;BMP280;69763;50.182;9.144;2023-07-29T05:03:22;99297.03;;;17.26
80422;BMP280;69763;50.182;9.144;2023-07-29T05:05:49;99299.94;;;17.28
80422;BMP280;69763;50.182;9.144;2023-07-29T05:08:14;99294.00;;;17.31
80422;BMP280;69763;50.182;9.144;2023-07-29T05:10:39;99286.78;;;17.36
80422;BMP280;69763;50.182;9.144;2023-07-29T05:13:05;99298.75;;;17.40
80422;BMP280;69763;50.182;9.144;2023-07-29T05:15:30;99286.88;;;17.47
80422;BMP280;69763;50.182;9.144;2023-07-29T05:17:56;99294.25;;;17.55
80422;BMP280;69763;50.182;9.144;2023-07-29T05:20:21;99293.19;;;17.60
80422;BMP280;69763;50.182;9.144;2023-07-29T05:22:48;99295.06;;;17.67
80422;BMP280;69763;50.182;9.144;2023-07-29T05:25:13;99300.91;;;17.73
80422;BMP280;69763;50.182;9.144;2023-07-29T05:27:39;99307.53;;;17.79
80422;BMP280;69763;50.182;9.144;2023-07-29T05:30:05;99294.94;;;17.86
80422;BMP280;69763;50.182;9.144;2023-07-29T05:32:33;99308.34;;;17.91
80422;BMP280;69763;50.182;9.144;2023-07-29T05:34:58;99303.41;;;18.00
80422;BMP280;69763;50.182;9.144;2023-07-29T05:37:24;99304.66;;;18.08
80422;BMP280;69763;50.182;9.144;2023-07-29T05:39:50;99307.00;;;18.23
80422;BMP280;69763;50.182;9.144;2023-07-29T05:42:16;99310.41;;;18.33
80422;BMP280;69763;50.182;9.144;2023-07-29T05:44:41;99308.31;;;18.43
80422;BMP280;69763;50.182;9.144;2023-07-29T05:47:06;99311.59;;;18.52
80422;BMP280;69763;50.182;9.144;2023-07-29T05:49:32;99308.91;;;18.63
80422;BMP280;69763;50.182;9.144;2023-07-29T05:51:57;99314.09;;;18.80
80422;BMP280;69763;50.182;9.144;2023-07-29T05:54:22;99325.00;;;18.90
80422;BMP280;69763;50.182;9.144;2023-07-29T05:56:49;99328.13;;;18.96
80422;BMP280;69763;50.182;9.144;2023-07-29T05:59:14;99322.41;;;19.04
80422;BMP280;69763;50.182;9.144;2023-07-29T06:01:40;99331.50;;;19.06
80422;BMP280;69763;50.182;9.144;2023-07-29T06:04:05;99334.25;;;19.06
80422;BMP280;69763;50.182;9.144;2023-07-29T06:06:31;99340.25;;;19.14
80422;BMP280;69763;50.182;9.144;2023-07-29T06:08:56;99344.78;;;19.21
80422;BMP280;69763;50.182;9.144;2023-07-29T06:11:21;99350.66;;;19.27
80422;BMP280;69763;50.182;9.144;2023-07-29T06:13:48;99348.38;;;19.24
80422;BMP280;69763;50.182;9.144;2023-07-29T06:16:13;99342.03;;;19.10
80422;BMP280;69763;50.182;9.144;2023-07-29T06:18:39;99333.38;;;19.04
80422;BMP280;69763;50.182;9.144;2023-07-29T06:21:04;99336.53;;;19.10
80422;BMP280;69763;50.182;9.144;2023-07-29T06:23:30;99336.31;;;19.17
80422;BMP280;69763;50.182;9.144;2023-07-29T06:25:55;99327.59;;;19.21
80422;BMP280;69763;50.182;9.144;2023-07-29T06:28:20;99335.47;;;19.26
80422;BMP280;69763;50.182;9.144;2023-07-29T06:30:47;99339.78;;;19.29
80422;BMP280;69763;50.182;9.144;2023-07-29T06:33:12;99339.31;;;19.21
80422;BMP280;69763;50.182;9.144;2023-07-29T06:35:38;99330.09;;;19.17
80422;BMP280;69763;50.182;9.144;2023-07-29T06:38:03;99328.28;;;19.10
80422;BMP280;69763;50.182;9.144;2023-07-29T06:40:28;99327.31;;;19.05
80422;BMP280;69763;50.182;9.144;2023-07-29T06:42:54;99330.38;;;19.00
80422;BMP280;69763;50.182;9.144;2023-07-29T06:45:19;99340.75;;;18.89
80422;BMP280;69763;50.182;9.144;2023-07-29T06:47:46;99335.78;;;18.76
80422;BMP280;69763;50.182;9.144;2023-07-29T06:50:11;99341.38;;;18.67
80422;BMP280;69763;50.182;9.144;2023-07-29T06:52:36;99339.69;;;18.62
80422;BMP280;69763;50.182;9.144;2023-07-29T06:55:02;99340.13;;;18.58
80422;BMP280;69763;50.182;9.144;2023-07-29T06:57:28;99340.59;;;18.55
80422;BMP280;69763;50.182;9.144;2023-07-29T06:59:53;99340.69;;;18.45
80422;BMP280;69763;50.182;9.144;2023-07-29T07:02:18;99357.63;;;18.32
80422;BMP280;69763;50.182;9.144;2023-07-29T07:04:45;99364.22;;;18.17
80422;BMP280;69763;50.182;9.144;2023-07-29T07:07:10;99373.84;;;17.97
80422;BMP280;69763;50.182;9.144;2023-07-29T07:09:36;99377.66;;;17.73
80422;BMP280;69763;50.182;9.144;2023-07-29T07:12:01;99343.97;;;17.51
80422;BMP280;69763;50.182;9.144;2023-07-29T07:14:27;99310.16;;;17.27
80422;BMP280;69763;50.182;9.144;2023-07-29T07:16:52;99333.69;;;17.02
80422;BMP280;69763;50.182;9.144;2023-07-29T07:19:18;99343.91;;;16.82
80422;BMP280;69763;50.182;9.144;2023-07-29T07:21:44;99344.91;;;16.77
80422;BMP280;69763;50.182;9.144;2023-07-29T07:24:10;99336.56;;;16.84
80422;BMP280;69763;50.182;9.144;2023-07-29T07:26:35;99352.56;;;16.97
80422;BMP280;69763;50.182;9.144;2023-07-29T07:29:00;99352.16;;;17.11
80422;BMP280;69763;50.182;9.144;2023-07-29T07:31:26;99350.22;;;17.23
80422;BMP280;69763;50.182;9.144;2023-07-29T07:33:51;99355.25;;;17.36
80422;BMP280;69763;50.182;9.144;2023-07-29T07:36:16;99350.63;;;17.48
80422;BMP280;69763;50.182;9.144;2023-07-29T07:38:43;99354.53;;;17.55
80422;BMP280;69763;50.182;9.144;2023-07-29T07:41:09;99362.56;;;17.62
80422;BMP280;69763;50.182;9.144;2023-07-29T07:43:34;99353.19;;;17.65
80422;BMP280;69763;50.182;9.144;2023-07-29T07:46:00;99340.94;;;17.66
80422;BMP280;69763;50.182;9.144;2023-07-29T07:48:26;99331.78;;;17.73
80422;BMP280;69763;50.182;9.144;2023-07-29T07:50:51;99329.59;;;17.81
80422;BMP280;69763;50.182;9.144;2023-07-29T07:53:17;99330.69;;;17.98
80422;BMP280;69763;50.182;9.144;2023-07-29T07:55:43;99324.84;;;18.13
80422;BMP280;69763;50.182;9.144;2023-07-29T07:58:09;99322.50;;;18.19
80422;BMP280;69763;50.182;9.144;2023-07-29T08:00:34;99335.03;;;18.22
80422;BMP280;69763;50.182;9.144;2023-07-29T08:02:59;99342.34;;;18.29
80422;BMP280;69763;50.182;9.144;2023-07-29T08:05:25;99365.53;;;18.37
80422;BMP280;69763;50.182;9.144;2023-07-29T08:07:50;99361.50;;;18.38
80422;BMP280;69763;50.182;9.144;2023-07-29T08:10:16;99366.25;;;18.38
80422;BMP280;69763;50.182;9.144;2023-07-29T08:12:43;99367.75;;;18.29
80422;BMP280;69763;50.182;9.144;2023-07-29T08:15:08;99368.41;;;18.18
80422;BMP280;69763;50.182;9.144;2023-07-29T08:17:34;99369.00;;;18.17
80422;BMP280;69763;50.182;9.144;2023-07-29T08:19:59;99366.59;;;18.32
80422;BMP280;69763;50.182;9.144;2023-07-29T08:22:24;99366.69;;;18.65
80422;BMP280;69763;50.182;9.144;2023-07-29T08:24:50;99369.09;;;19.04
80422;BMP280;69763;50.182;9.144;2023-07-29T08:27:15;99382.00;;;19.57
80422;BMP280;69763;50.182;9.144;2023-07-29T08:29:42;99375.47;;;19.74
80422;BMP280;69763;50.182;9.144;2023-07-29T08:32:07;99375.47;;;19.74
80422;BMP280;69763;50.182;9.144;2023-07-29T08:34:33;99374.34;;;19.56
80422;BMP280;69763;50.182;9.144;2023-07-29T08:36:58;99377.97;;;19.58
80422;BMP280;69763;50.182;9.144;2023-07-29T08:39:23;99379.41;;;19.59
80422;BMP280;69763;50.182;9.144;2023-07-29T08:41:52;99374.97;;;19.54
80422;BMP280;69763;50.182;9.144;2023-07-29T08:44:21;99376.41;;;19.55
80422;BMP280;69763;50.182;9.144;2023-07-29T08:46:48;99379.19;;;19.67
80422;BMP280;69763;50.182;9.144;2023-07-29T08:49:14;99381.44;;;19.94
80422;BMP280;69763;50.182;9.144;2023-07-29T08:51:41;99377.41;;;20.43
80422;BMP280;69763;50.182;9.144;2023-07-29T08:54:07;99381.44;;;20.91
80422;BMP280;69763;50.182;9.144;2023-07-29T08:56:32;99377.44;;;21.05
80422;BMP280;69763;50.182;9.144;2023-07-29T08:58:58;99376.78;;;21.32
80422;BMP280;69763;50.182;9.144;2023-07-29T09:01:24;99376.03;;;22.99
80422;BMP280;69763;50.182;9.144;2023-07-29T09:03:51;99376.94;;;25.05
80422;BMP280;69763;50.182;9.144;2023-07-29T09:06:18;99363.28;;;25.70
80422;BMP280;69763;50.182;9.144;2023-07-29T09:08:44;99356.31;;;26.35
80422;BMP280;69763;50.182;9.144;2023-07-29T09:11:13;99365.66;;;26.69
80422;BMP280;69763;50.182;9.144;2023-07-29T09:13:38;99361.09;;;26.32
80422;BMP280;69763;50.182;9.144;2023-07-29T09:16:04;99354.50;;;26.43
80422;BMP280;69763;50.182;9.144;2023-07-29T09:18:30;99366.84;;;26.16
80422;BMP280;69763;50.182;9.144;2023-07-29T09:20:59;99361.06;;;25.87
80422;BMP280;69763;50.182;9.144;2023-07-29T09:23:24;99361.63;;;25.83
80422;BMP280;69763;50.182;9.144;2023-07-29T09:25:50;99358.75;;;26.70
80422;BMP280;69763;50.182;9.144;2023-07-29T09:28:16;99362.84;;;27.42
80422;BMP280;69763;50.182;9.144;2023-07-29T09:30:42;99356.50;;;27.67
80422;BMP280;69763;50.182;9.144;2023-07-29T09:33:08;99351.75;;;27.99
80422;BMP280;69763;50.182;9.144;2023-07-29T09:35:35;99348.00;;;28.86
80422;BMP280;69763;50.182;9.144;2023-07-29T09:38:03;99346.69;;;29.29
80422;BMP280;69763;50.182;9.144;2023-07-29T09:40:34;99348.06;;;28.90
80422;BMP280;69763;50.182;9.144;2023-07-29T09:42:59;99342.75;;;28.68
80422;BMP280;69763;50.182;9.144;2023-07-29T09:45:25;99351.84;;;28.69
80422;BMP280;69763;50.182;9.144;2023-07-29T09:47:51;99352.69;;;28.42
80422;BMP280;69763;50.182;9.144;2023-07-29T09:50:17;99354.63;;;27.76
80422;BMP280;69763;50.182;9.144;2023-07-29T09:52:42;99356.56;;;27.16
80422;BMP280;69763;50.182;9.144;2023-07-29T09:55:11;99361.34;;;26.88
80422;BMP280;69763;50.182;9.144;2023-07-29T09:57:37;99358.03;;;26.69
80422;BMP280;69763;50.182;9.144;2023-07-29T10:00:02;99355.19;;;26.67
80422;BMP280;69763;50.182;9.144;2023-07-29T10:02:28;99361.44;;;26.90
80422;BMP280;69763;50.182;9.144;2023-07-29T10:04:54;99359.94;;;26.63
80422;BMP280;69763;50.182;9.144;2023-07-29T10:07:20;99358.56;;;26.64
80422;BMP280;69763;50.182;9.144;2023-07-29T10:09:45;99357.56;;;26.53
80422;BMP280;69763;50.182;9.144;2023-07-29T10:12:13;99362.84;;;26.43
80422;BMP280;69763;50.182;9.144;2023-07-29T10:14:39;99357.28;;;26.43
80422;BMP280;69763;50.182;9.144;2023-07-29T10:17:04;99354.31;;;26.37
80422;BMP280;69763;50.182;9.144;2023-07-29T10:19:30;99365.78;;;26.49
80422;BMP280;69763;50.182;9.144;2023-07-29T10:21:59;99358.03;;;26.46
80422;BMP280;69763;50.182;9.144;2023-07-29T10:24:30;99354.88;;;26.34
80422;BMP280;69763;50.182;9.144;2023-07-29T10:26:57;99347.06;;;26.50
80422;BMP280;69763;50.182;9.144;2023-07-29T10:29:29;99342.72;;;27.18
80422;BMP280;69763;50.182;9.144;2023-07-29T10:31:57;99343.38;;;27.42
80422;BMP280;69763;50.182;9.144;2023-07-29T10:34:24;99340.03;;;27.48
80422;BMP280;69763;50.182;9.144;2023-07-29T10:36:50;99332.41;;;27.78
80422;BMP280;69763;50.182;9.144;2023-07-29T10:39:16;99329.34;;;28.27
80422;BMP280;69763;50.182;9.144;2023-07-29T10:41:54;99333.81;;;28.40
80422;BMP280;69763;50.182;9.144;2023-07-29T10:44:51;99325.63;;;27.57
80422;BMP280;69763;50.182;9.144;2023-07-29T10:47:19;99330.78;;;26.40
80422;BMP280;69763;50.182;9.144;2023-07-29T10:49:45;99330.22;;;25.79
80422;BMP280;69763;50.182;9.144;2023-07-29T10:52:13;99334.19;;;25.93
80422;BMP280;69763;50.182;9.144;2023-07-29T10:54:42;99338.47;;;26.65
80422;BMP280;69763;50.182;9.144;2023-07-29T10:57:07;99325.56;;;27.02
80422;BMP280;69763;50.182;9.144;2023-07-29T10:59:33;99330.59;;;27.33
80422;BMP280;69763;50.182;9.144;2023-07-29T11:02:00;99327.69;;;27.29
80422;BMP280;69763;50.182;9.144;2023-07-29T11:04:28;99325.59;;;27.27
80422;BMP280;69763;50.182;9.144;2023-07-29T11:07:19;99323.63;;;27.06
80422;BMP280;69763;50.182;9.144;2023-07-29T11:09:52;99317.91;;;27.00
80422;BMP280;69763;50.182;9.144;2023-07-29T11:12:38;99322.25;;;27.07
80422;BMP280;69763;50.182;9.144;2023-07-29T11:15:12;99320.81;;;27.32
80422;BMP280;69763;50.182;9.144;2023-07-29T11:17:41;99320.91;;;27.91
80422;BMP280;69763;50.182;9.144;2023-07-29T11:20:07;99309.75;;;28.57
80422;BMP280;69763;50.182;9.144;2023-07-29T11:22:33;99310.91;;;28.80
80422;BMP280;69763;50.182;9.144;2023-07-29T11:24:59;99302.53;;;28.80
80422;BMP280;69763;50.182;9.144;2023-07-29T11:27:24;99289.63;;;28.98
80422;BMP280;69763;50.182;9.144;2023-07-29T11:29:50;99296.19;;;29.55
80422;BMP280;69763;50.182;9.144;2023-07-29T11:32:15;99301.50;;;29.84
80422;BMP280;69763;50.182;9.144;2023-07-29T11:34:42;99297.78;;;29.70
80422;BMP280;69763;50.182;9.144;2023-07-29T11:37:10;99293.88;;;29.41
80422;BMP280;69763;50.182;9.144;2023-07-29T11:39:39;99290.88;;;28.89
80422;BMP280;69763;50.182;9.144;2023-07-29T11:42:05;99280.56;;;28.26
80422;BMP280;69763;50.182;9.144;2023-07-29T11:44:30;99295.97;;;27.68
80422;BMP280;69763;50.182;9.144;2023-07-29T11:46:56;99298.13;;;27.41
80422;BMP280;69763;50.182;9.144;2023-07-29T11:49:21;99292.41;;;27.35
80422;BMP280;69763;50.182;9.144;2023-07-29T11:51:47;99299.16;;;27.56
80422;BMP280;69763;50.182;9.144;2023-07-29T11:54:13;99298.53;;;27.87
80422;BMP280;69763;50.182;9.144;2023-07-29T11:56:38;99289.34;;;27.83
80422;BMP280;69763;50.182;9.144;2023-07-29T11:59:04;99287.19;;;27.50
80422;BMP280;69763;50.182;9.144;2023-07-29T12:01:30;99289.69;;;27.12
80422;BMP280;69763;50.182;9.144;2023-07-29T12:03:56;99285.56;;;26.87
80422;BMP280;69763;50.182;9.144;2023-07-29T12:06:22;99285.97;;;27.01
80422;BMP280;69763;50.182;9.144;2023-07-29T12:08:49;99287.66;;;26.87
80422;BMP280;69763;50.182;9.144;2023-07-29T12:11:15;99291.75;;;26.36
80422;BMP280;69763;50.182;9.144;2023-07-29T12:13:41;99292.06;;;26.01
80422;BMP280;69763;50.182;9.144;2023-07-29T12:16:06;99289.91;;;25.97
80422;BMP280;69763;50.182;9.144;2023-07-29T12:18:33;99293.78;;;26.12
80422;BMP280;69763;50.182;9.144;2023-07-29T12:20:58;99294.97;;;26.05
80422;BMP280;69763;50.182;9.144;2023-07-29T12:23:24;99282.28;;;25.98
80422;BMP280;69763;50.182;9.144;2023-07-29T12:25:51;99288.38;;;26.16
80422;BMP280;69763;50.182;9.144;2023-07-29T12:28:16;99285.88;;;27.25
80422;BMP280;69763;50.182;9.144;2023-07-29T12:30:42;99284.00;;;28.23
80422;BMP280;69763;50.182;9.144;2023-07-29T12:33:07;99290.16;;;28.51
80422;BMP280;69763;50.182;9.144;2023-07-29T12:35:36;99283.13;;;28.48
80422;BMP280;69763;50.182;9.144;2023-07-29T12:38:02;99286.53;;;28.44
80422;BMP280;69763;50.182;9.144;2023-07-29T12:40:27;99280.13;;;28.38
80422;BMP280;69763;50.182;9.144;2023-07-29T12:42:54;99276.38;;;28.25
80422;BMP280;69763;50.182;9.144;2023-07-29T12:45:19;99277.47;;;28.12
80422;BMP280;69763;50.182;9.144;2023-07-29T12:47:45;99268.75;;;27.94
80422;BMP280;69763;50.182;9.144;2023-07-29T12:50:10;99273.50;;;27.89
80422;BMP280;69763;50.182;9.144;2023-07-29T12:52:35;99274.06;;;27.84
80422;BMP280;69763;50.182;9.144;2023-07-29T12:55:01;99270.44;;;27.77
80422;BMP280;69763;50.182;9.144;2023-07-29T12:57:27;99268.88;;;28.00
80422;BMP280;69763;50.182;9.144;2023-07-29T12:59:53;99263.28;;;28.32
80422;BMP280;69763;50.182;9.144;2023-07-29T13:02:19;99254.19;;;28.65
80422;BMP280;69763;50.182;9.144;2023-07-29T13:04:44;99268.84;;;29.03
80422;BMP280;69763;50.182;9.144;2023-07-29T13:07:09;99265.47;;;29.55
80422;BMP280;69763;50.182;9.144;2023-07-29T13:09:35;99263.03;;;29.79
80422;BMP280;69763;50.182;9.144;2023-07-29T13:12:00;99266.56;;;29.81
80422;BMP280;69763;50.182;9.144;2023-07-29T13:14:26;99252.75;;;29.93
80422;BMP280;69763;50.182;9.144;2023-07-29T13:16:52;99256.75;;;30.36
80422;BMP280;69763;50.182;9.144;2023-07-29T13:19:18;99249.38;;;30.03
80422;BMP280;69763;50.182;9.144;2023-07-29T13:21:43;99256.25;;;29.44
80422;BMP280;69763;50.182;9.144;2023-07-29T13:24:08;99264.19;;;28.78
80422;BMP280;69763;50.182;9.144;2023-07-29T13:26:34;99253.72;;;28.41
80422;BMP280;69763;50.182;9.144;2023-07-29T13:28:59;99258.94;;;28.25
80422;BMP280;69763;50.182;9.144;2023-07-29T13:31:24;99256.22;;;27.95
80422;BMP280;69763;50.182;9.144;2023-07-29T13:33:51;99260.25;;;27.58
80422;BMP280;69763;50.182;9.144;2023-07-29T13:36:16;99251.13;;;27.26
80422;BMP280;69763;50.182;9.144;2023-07-29T13:38:42;99260.66;;;26.91
80422;BMP280;69763;50.182;9.144;2023-07-29T13:41:07;99269.75;;;26.68
80422;BMP280;69763;50.182;9.144;2023-07-29T13:43:32;99258.91;;;26.54
80422;BMP280;69763;50.182;9.144;2023-07-29T13:45:58;99264.22;;;26.44
80422;BMP280;69763;50.182;9.144;2023-07-29T13:48:23;99256.22;;;26.56
80422;BMP280;69763;50.182;9.144;2023-07-29T13:50:50;99266.72;;;27.11
80422;BMP280;69763;50.182;9.144;2023-07-29T13:53:15;99261.56;;;27.85
80422;BMP280;69763;50.182;9.144;2023-07-29T13:55:40;99264.81;;;28.75
80422;BMP280;69763;50.182;9.144;2023-07-29T13:58:06;99268.25;;;29.13
80422;BMP280;69763;50.182;9.144;2023-07-29T14:00:31;99265.09;;;28.91
80422;BMP280;69763;50.182;9.144;2023-07-29T14:02:56;99257.41;;;28.89